Celik 1 — 9HKY9 — position and weather

sailwx.info

Track history (hours):
 
Tides and Currents Weather Stations Pressure Air Temp Water Temp Dewpoint Dewpoint Depression Visibility Wind Speed Wind Dir Waves Ship Positions

Celik 1

Last reported at 2016-Aug-29 10:33 UTC. Time now 2016-Aug-30 20:55 UTC.
Position N 40°58' E 028°56'.

Length 121 m; draft 4.7 m.

Type: Cargo ship. MMSI: 249114000.

Date/timePositionNaut miles runAvg speedWind from/ knotsBaromVisibWave heightAir tempDewpointWater temp
2016-Aug-29 10:33N 40°58' E 028°56'8 8.2
2016-Aug-29 09:33N 40°51' E 028°49'  
2016-Aug-26 03:27N 38°06' E 024°45'5 5.3
2016-Aug-26 02:28N 38°02' E 024°42'4 4.0
2016-Aug-26 01:33N 37°59' E 024°39'3 2.8
2016-Aug-26 00:33N 37°57' E 024°37'3 3.1
2016-Aug-25 23:33N 37°54' E 024°34'5 5.1
2016-Aug-25 22:33N 37°51' E 024°30'8 7.7
2016-Aug-25 21:33N 37°46' E 024°22'9 9.1
2016-Aug-25 20:33N 37°39' E 024°14'9 8.8
2016-Aug-25 19:33N 37°32' E 024°08'9 9.4
2016-Aug-25 18:33N 37°24' E 024°01'  
2016-Aug-21 15:11N 44°30' E 012°29'0 0.0
2016-Aug-21 07:17N 44°30' E 012°29'0 0.0
2016-Aug-21 04:29N 44°30' E 012°29'0 0.0
2016-Aug-21 02:32N 44°30' E 012°29'0 0.0
2016-Aug-20 23:20N 44°30' E 012°29'0 0.0
2016-Aug-20 22:29N 44°30' E 012°29'0 0.0
2016-Aug-20 21:32N 44°30' E 012°29'0 0.0
2016-Aug-20 20:32N 44°30' E 012°29'0 0.0
2016-Aug-20 19:32N 44°30' E 012°29'0 0.0
2016-Aug-20 18:29N 44°30' E 012°29'0 0.0
2016-Aug-20 17:32N 44°30' E 012°29'0 0.0
2016-Aug-20 16:32N 44°30' E 012°29'0 0.0
2016-Aug-20 15:32N 44°30' E 012°29'0 0.0
2016-Aug-20 14:32N 44°30' E 012°29'0 0.0
2016-Aug-20 13:26N 44°30' E 012°29'0 0.0
2016-Aug-20 12:14N 44°30' E 012°29'0 0.0
2016-Aug-20 06:17N 44°30' E 012°29'4 6.0
2016-Aug-20 05:33N 44°30' E 012°23'6 5.7
2016-Aug-20 04:27N 44°27' E 012°15'0 0.0
2016-Aug-20 03:27N 44°27' E 012°15'0 0.0
2016-Aug-20 00:09N 44°27' E 012°15'0 0.0
2016-Aug-19 23:27N 44°27' E 012°15'0 0.0
2016-Aug-19 22:33N 44°27' E 012°15'0 0.0
2016-Aug-19 20:06N 44°27' E 012°15'0 0.0
2016-Aug-19 18:12N 44°27' E 012°15'0 0.0
2016-Aug-19 17:18N 44°27' E 012°15'0 0.0
2016-Aug-19 16:33N 44°27' E 012°15'  
Track history (hours):
 
Tides and Currents Weather Stations Pressure Air Temp Water Temp Dewpoint Dewpoint Depression Visibility Wind Speed Wind Dir Waves Ship Positions

Celik 1

Last reported at 2016-Aug-29 10:33 UTC. Time now 2016-Aug-30 20:55 UTC.
Position N 40°58' E 028°56'.

Length 121 m; draft 4.7 m.

Type: Cargo ship. MMSI: 249114000.

Date/timePositionNaut miles runAvg speedWind from/ knotsBaromVisibWave heightAir tempDewpointWater temp
2016-Aug-29 10:33N 40°58' E 028°56'8 8.2
2016-Aug-29 09:33N 40°51' E 028°49'  
2016-Aug-26 03:27N 38°06' E 024°45'5 5.3
2016-Aug-26 02:28N 38°02' E 024°42'4 4.0
2016-Aug-26 01:33N 37°59' E 024°39'3 2.8
2016-Aug-26 00:33N 37°57' E 024°37'3 3.1
2016-Aug-25 23:33N 37°54' E 024°34'5 5.1
2016-Aug-25 22:33N 37°51' E 024°30'8 7.7
2016-Aug-25 21:33N 37°46' E 024°22'9 9.1
2016-Aug-25 20:33N 37°39' E 024°14'9 8.8
2016-Aug-25 19:33N 37°32' E 024°08'9 9.4
2016-Aug-25 18:33N 37°24' E 024°01'  
2016-Aug-21 15:11N 44°30' E 012°29'0 0.0
2016-Aug-21 07:17N 44°30' E 012°29'0 0.0
2016-Aug-21 04:29N 44°30' E 012°29'0 0.0
2016-Aug-21 02:32N 44°30' E 012°29'0 0.0
2016-Aug-20 23:20N 44°30' E 012°29'0 0.0
2016-Aug-20 22:29N 44°30' E 012°29'0 0.0
2016-Aug-20 21:32N 44°30' E 012°29'0 0.0
2016-Aug-20 20:32N 44°30' E 012°29'0 0.0
2016-Aug-20 19:32N 44°30' E 012°29'0 0.0
2016-Aug-20 18:29N 44°30' E 012°29'0 0.0
2016-Aug-20 17:32N 44°30' E 012°29'0 0.0
2016-Aug-20 16:32N 44°30' E 012°29'0 0.0
2016-Aug-20 15:32N 44°30' E 012°29'0 0.0
2016-Aug-20 14:32N 44°30' E 012°29'0 0.0
2016-Aug-20 13:26N 44°30' E 012°29'0 0.0
2016-Aug-20 12:14N 44°30' E 012°29'0 0.0
2016-Aug-20 06:17N 44°30' E 012°29'4 6.0
2016-Aug-20 05:33N 44°30' E 012°23'6 5.7
2016-Aug-20 04:27N 44°27' E 012°15'0 0.0
2016-Aug-20 03:27N 44°27' E 012°15'0 0.0
2016-Aug-20 00:09N 44°27' E 012°15'0 0.0
2016-Aug-19 23:27N 44°27' E 012°15'0 0.0
2016-Aug-19 22:33N 44°27' E 012°15'0 0.0
2016-Aug-19 20:06N 44°27' E 012°15'0 0.0
2016-Aug-19 18:12N 44°27' E 012°15'0 0.0
2016-Aug-19 17:18N 44°27' E 012°15'0 0.0
2016-Aug-19 16:33N 44°27' E 012°15'  

Dump ship's entire track history